sensor_id;sensor_type;location;lat;lon;timestamp;temperature;humidity
21722;DHT22;11023;48.274;7.794;2024-02-15T00:02:14;8.70;99.90
21722;DHT22;11023;48.274;7.794;2024-02-15T00:04:39;8.80;99.90
21722;DHT22;11023;48.274;7.794;2024-02-15T00:07:06;8.70;99.90
21722;DHT22;11023;48.274;7.794;2024-02-15T00:09:31;8.70;99.90
21722;DHT22;11023;48.274;7.794;2024-02-15T00:11:57;8.60;99.90
21722;DHT22;11023;48.274;7.794;2024-02-15T00:14:25;8.60;99.90
21722;DHT22;11023;48.274;7.794;2024-02-15T00:16:55;8.60;99.90
21722;DHT22;11023;48.274;7.794;2024-02-15T00:19:20;8.60;99.90
21722;DHT22;11023;48.274;7.794;2024-02-15T00:21:47;8.60;99.90
21722;DHT22;11023;48.274;7.794;2024-02-15T00:24:13;8.60;99.90
21722;DHT22;11023;48.274;7.794;2024-02-15T00:26:40;8.60;99.90
21722;DHT22;11023;48.274;7.794;2024-02-15T00:29:06;8.60;99.90
21722;DHT22;11023;48.274;7.794;2024-02-15T00:31:31;8.50;99.90
21722;DHT22;11023;48.274;7.794;2024-02-15T00:33:57;8.50;99.90
21722;DHT22;11023;48.274;7.794;2024-02-15T00:36:25;8.40;99.90
21722;DHT22;11023;48.274;7.794;2024-02-15T00:38:50;8.40;99.90
21722;DHT22;11023;48.274;7.794;2024-02-15T00:41:17;8.30;99.90
21722;DHT22;11023;48.274;7.794;2024-02-15T00:43:45;8.30;99.90
21722;DHT22;11023;48.274;7.794;2024-02-15T00:46:11;8.30;99.90
21722;DHT22;11023;48.274;7.794;2024-02-15T00:48:37;8.30;99.90
21722;DHT22;11023;48.274;7.794;2024-02-15T00:51:10;8.30;99.90
21722;DHT22;11023;48.274;7.794;2024-02-15T00:53:36;8.30;99.90
21722;DHT22;11023;48.274;7.794;2024-02-15T00:56:02;8.20;99.90
21722;DHT22;11023;48.274;7.794;2024-02-15T00:58:27;8.20;99.90
21722;DHT22;11023;48.274;7.794;2024-02-15T01:00:53;8.10;99.90
21722;DHT22;11023;48.274;7.794;2024-02-15T01:03:19;8.10;99.90
21722;DHT22;11023;48.274;7.794;2024-02-15T01:05:45;7.90;99.90
21722;DHT22;11023;48.274;7.794;2024-02-15T01:08:11;7.90;99.90
21722;DHT22;11023;48.274;7.794;2024-02-15T01:10:37;7.80;99.90
21722;DHT22;11023;48.274;7.794;2024-02-15T01:13:03;7.80;99.90
21722;DHT22;11023;48.274;7.794;2024-02-15T01:15:28;7.80;99.90
21722;DHT22;11023;48.274;7.794;2024-02-15T01:17:55;7.90;99.90
21722;DHT22;11023;48.274;7.794;2024-02-15T01:20:20;7.90;99.90
21722;DHT22;11023;48.274;7.794;2024-02-15T01:22:46;8.00;99.90
21722;DHT22;11023;48.274;7.794;2024-02-15T01:25:12;8.10;99.90
21722;DHT22;11023;48.274;7.794;2024-02-15T01:27:41;8.10;99.90
21722;DHT22;11023;48.274;7.794;2024-02-15T01:30:07;8.20;99.90
21722;DHT22;11023;48.274;7.794;2024-02-15T01:32:34;8.20;99.90
21722;DHT22;11023;48.274;7.794;2024-02-15T01:34:59;8.30;99.90
21722;DHT22;11023;48.274;7.794;2024-02-15T01:37:25;8.30;99.90
21722;DHT22;11023;48.274;7.794;2024-02-15T01:39:51;8.20;99.90
21722;DHT22;11023;48.274;7.794;2024-02-15T01:42:17;8.10;99.90
21722;DHT22;11023;48.274;7.794;2024-02-15T01:44:44;8.10;99.90
21722;DHT22;11023;48.274;7.794;2024-02-15T01:47:11;8.00;99.90
21722;DHT22;11023;48.274;7.794;2024-02-15T01:49:37;8.00;99.90
21722;DHT22;11023;48.274;7.794;2024-02-15T01:52:05;7.90;99.90
21722;DHT22;11023;48.274;7.794;2024-02-15T01:54:34;7.90;99.90
21722;DHT22;11023;48.274;7.794;2024-02-15T01:57:02;7.90;99.90
21722;DHT22;11023;48.274;7.794;2024-02-15T01:59:28;8.00;99.90
21722;DHT22;11023;48.274;7.794;2024-02-15T02:01:57;7.90;99.90
21722;DHT22;11023;48.274;7.794;2024-02-15T02:04:23;8.00;99.90
21722;DHT22;11023;48.274;7.794;2024-02-15T02:06:48;7.90;99.90
21722;DHT22;11023;48.274;7.794;2024-02-15T02:09:14;7.90;99.90
21722;DHT22;11023;48.274;7.794;2024-02-15T02:11:45;7.80;99.90
21722;DHT22;11023;48.274;7.794;2024-02-15T02:14:11;7.70;99.90
21722;DHT22;11023;48.274;7.794;2024-02-15T02:16:37;7.50;99.90
21722;DHT22;11023;48.274;7.794;2024-02-15T02:19:05;7.50;99.90
21722;DHT22;11023;48.274;7.794;2024-02-15T02:21:35;7.40;99.90
21722;DHT22;11023;48.274;7.794;2024-02-15T02:24:04;7.40;99.90
21722;DHT22;11023;48.274;7.794;2024-02-15T02:26:34;7.40;99.90
21722;DHT22;11023;48.274;7.794;2024-02-15T02:29:02;7.30;99.90
21722;DHT22;11023;48.274;7.794;2024-02-15T02:31:36;7.20;99.90
21722;DHT22;11023;48.274;7.794;2024-02-15T02:34:02;7.20;99.90
21722;DHT22;11023;48.274;7.794;2024-02-15T02:36:27;7.10;99.90
21722;DHT22;11023;48.274;7.794;2024-02-15T02:38:55;7.10;99.90
21722;DHT22;11023;48.274;7.794;2024-02-15T02:41:26;7.10;99.90
21722;DHT22;11023;48.274;7.794;2024-02-15T02:43:52;7.10;99.90
21722;DHT22;11023;48.274;7.794;2024-02-15T02:46:17;7.10;99.90
21722;DHT22;11023;48.274;7.794;2024-02-15T02:48:43;7.10;99.90
21722;DHT22;11023;48.274;7.794;2024-02-15T02:51:09;7.10;99.90
21722;DHT22;11023;48.274;7.794;2024-02-15T02:53:35;7.00;99.90
21722;DHT22;11023;48.274;7.794;2024-02-15T02:56:02;7.00;99.90
21722;DHT22;11023;48.274;7.794;2024-02-15T02:58:29;7.00;99.90
21722;DHT22;11023;48.274;7.794;2024-02-15T03:00:55;7.00;99.90
21722;DHT22;11023;48.274;7.794;2024-02-15T03:03:21;6.90;99.90
21722;DHT22;11023;48.274;7.794;2024-02-15T03:05:50;6.90;99.90
21722;DHT22;11023;48.274;7.794;2024-02-15T03:08:16;6.90;99.90
21722;DHT22;11023;48.274;7.794;2024-02-15T03:10:43;7.00;99.90
21722;DHT22;11023;48.274;7.794;2024-02-15T03:13:09;7.00;99.90
21722;DHT22;11023;48.274;7.794;2024-02-15T03:15:35;7.00;99.90
21722;DHT22;11023;48.274;7.794;2024-02-15T03:18:02;6.90;99.90
21722;DHT22;11023;48.274;7.794;2024-02-15T03:20:32;6.90;99.90
21722;DHT22;11023;48.274;7.794;2024-02-15T03:23:00;6.90;99.90
21722;DHT22;11023;48.274;7.794;2024-02-15T03:25:27;6.90;99.90
21722;DHT22;11023;48.274;7.794;2024-02-15T03:27:55;6.90;99.90
21722;DHT22;11023;48.274;7.794;2024-02-15T03:30:31;6.90;99.90
21722;DHT22;11023;48.274;7.794;2024-02-15T03:32:58;6.90;99.90
21722;DHT22;11023;48.274;7.794;2024-02-15T03:35:27;6.90;99.90
21722;DHT22;11023;48.274;7.794;2024-02-15T03:37:54;6.90;99.90
21722;DHT22;11023;48.274;7.794;2024-02-15T03:40:22;6.80;99.90
21722;DHT22;11023;48.274;7.794;2024-02-15T03:42:53;6.80;99.90
21722;DHT22;11023;48.274;7.794;2024-02-15T03:45:19;6.70;99.90
21722;DHT22;11023;48.274;7.794;2024-02-15T03:47:47;6.70;99.90
21722;DHT22;11023;48.274;7.794;2024-02-15T03:50:15;6.70;99.90
21722;DHT22;11023;48.274;7.794;2024-02-15T03:52:41;6.70;99.90
21722;DHT22;11023;48.274;7.794;2024-02-15T03:55:07;6.60;99.90
21722;DHT22;11023;48.274;7.794;2024-02-15T03:57:33;6.50;99.90
21722;DHT22;11023;48.274;7.794;2024-02-15T03:59:59;6.40;99.90
21722;DHT22;11023;48.274;7.794;2024-02-15T04:02:25;6.30;99.90
21722;DHT22;11023;48.274;7.794;2024-02-15T04:04:56;6.30;99.90
21722;DHT22;11023;48.274;7.794;2024-02-15T04:07:22;6.20;99.90
21722;DHT22;11023;48.274;7.794;2024-02-15T04:09:52;6.20;99.90
21722;DHT22;11023;48.274;7.794;2024-02-15T04:12:19;6.20;99.90
21722;DHT22;11023;48.274;7.794;2024-02-15T04:14:45;6.20;99.90
21722;DHT22;11023;48.274;7.794;2024-02-15T04:17:12;6.20;99.90
21722;DHT22;11023;48.274;7.794;2024-02-15T04:19:44;6.20;99.90
21722;DHT22;11023;48.274;7.794;2024-02-15T04:22:12;6.20;99.90
21722;DHT22;11023;48.274;7.794;2024-02-15T04:24:38;6.20;99.90
21722;DHT22;11023;48.274;7.794;2024-02-15T04:27:08;6.20;99.90
21722;DHT22;11023;48.274;7.794;2024-02-15T04:29:38;6.30;99.90
21722;DHT22;11023;48.274;7.794;2024-02-15T04:32:10;6.30;99.90
21722;DHT22;11023;48.274;7.794;2024-02-15T04:34:45;6.30;99.90
21722;DHT22;11023;48.274;7.794;2024-02-15T04:37:12;6.30;99.90
21722;DHT22;11023;48.274;7.794;2024-02-15T04:39:39;6.40;99.90
21722;DHT22;11023;48.274;7.794;2024-02-15T04:42:05;6.40;99.90
21722;DHT22;11023;48.274;7.794;2024-02-15T04:44:35;6.50;99.90
21722;DHT22;11023;48.274;7.794;2024-02-15T04:47:02;6.50;99.90
21722;DHT22;11023;48.274;7.794;2024-02-15T04:49:30;6.40;99.90
21722;DHT22;11023;48.274;7.794;2024-02-15T04:51:56;6.30;99.90
21722;DHT22;11023;48.274;7.794;2024-02-15T04:54:23;6.20;99.90
21722;DHT22;11023;48.274;7.794;2024-02-15T04:56:48;6.10;99.90
21722;DHT22;11023;48.274;7.794;2024-02-15T04:59:29;6.10;99.90
21722;DHT22;11023;48.274;7.794;2024-02-15T05:02:00;6.10;99.90
21722;DHT22;11023;48.274;7.794;2024-02-15T05:04:34;6.00;99.90
21722;DHT22;11023;48.274;7.794;2024-02-15T05:10:23;6.00;99.90
21722;DHT22;11023;48.274;7.794;2024-02-15T05:12:55;6.00;99.90
21722;DHT22;11023;48.274;7.794;2024-02-15T05:15:27;6.00;99.90
21722;DHT22;11023;48.274;7.794;2024-02-15T05:18:09;6.10;99.90
21722;DHT22;11023;48.274;7.794;2024-02-15T05:20:35;6.10;99.90
21722;DHT22;11023;48.274;7.794;2024-02-15T05:23:09;6.20;99.90
21722;DHT22;11023;48.274;7.794;2024-02-15T05:25:44;6.20;99.90
21722;DHT22;11023;48.274;7.794;2024-02-15T05:28:22;6.20;99.90
21722;DHT22;11023;48.274;7.794;2024-02-15T05:31:18;6.20;99.90
21722;DHT22;11023;48.274;7.794;2024-02-15T05:33:53;6.30;99.90
21722;DHT22;11023;48.274;7.794;2024-02-15T05:39:31;6.40;99.90
21722;DHT22;11023;48.274;7.794;2024-02-15T05:42:05;6.40;99.90
21722;DHT22;11023;48.274;7.794;2024-02-15T05:44:52;6.50;99.90
21722;DHT22;11023;48.274;7.794;2024-02-15T05:47:35;6.50;99.90
21722;DHT22;11023;48.274;7.794;2024-02-15T05:50:13;6.60;99.90
21722;DHT22;11023;48.274;7.794;2024-02-15T05:52:46;6.60;99.90
21722;DHT22;11023;48.274;7.794;2024-02-15T05:55:18;6.60;99.90
21722;DHT22;11023;48.274;7.794;2024-02-15T05:57:58;6.50;99.90
21722;DHT22;11023;48.274;7.794;2024-02-15T06:00:24;6.50;99.90
21722;DHT22;11023;48.274;7.794;2024-02-15T06:02:57;6.50;99.90
21722;DHT22;11023;48.274;7.794;2024-02-15T06:05:29;6.50;99.90
21722;DHT22;11023;48.274;7.794;2024-02-15T06:11:29;6.30;99.90
21722;DHT22;11023;48.274;7.794;2024-02-15T06:14:01;6.30;99.90
21722;DHT22;11023;48.274;7.794;2024-02-15T06:19:34;6.20;99.90
21722;DHT22;11023;48.274;7.794;2024-02-15T06:22:17;6.20;99.90
21722;DHT22;11023;48.274;7.794;2024-02-15T06:25:00;6.20;99.90
21722;DHT22;11023;48.274;7.794;2024-02-15T06:27:46;6.20;99.90
21722;DHT22;11023;48.274;7.794;2024-02-15T06:33:28;6.20;99.90
21722;DHT22;11023;48.274;7.794;2024-02-15T06:36:45;6.20;99.90
21722;DHT22;11023;48.274;7.794;2024-02-15T06:39:36;6.20;99.90
21722;DHT22;11023;48.274;7.794;2024-02-15T06:42:12;6.20;99.90
21722;DHT22;11023;48.274;7.794;2024-02-15T06:44:47;6.20;99.90
21722;DHT22;11023;48.274;7.794;2024-02-15T06:47:26;6.30;99.90
21722;DHT22;11023;48.274;7.794;2024-02-15T06:49:55;6.30;99.90
21722;DHT22;11023;48.274;7.794;2024-02-15T06:52:23;6.20;99.90
21722;DHT22;11023;48.274;7.794;2024-02-15T06:55:16;6.20;99.90
21722;DHT22;11023;48.274;7.794;2024-02-15T06:57:58;6.30;99.90
21722;DHT22;11023;48.274;7.794;2024-02-15T07:00:40;6.40;99.90
21722;DHT22;11023;48.274;7.794;2024-02-15T07:03:10;6.40;99.90
21722;DHT22;11023;48.274;7.794;2024-02-15T07:05:51;6.50;99.90
21722;DHT22;11023;48.274;7.794;2024-02-15T07:08:27;6.60;99.90
21722;DHT22;11023;48.274;7.794;2024-02-15T07:11:00;6.60;99.90
21722;DHT22;11023;48.274;7.794;2024-02-15T07:13:44;6.70;99.90
21722;DHT22;11023;48.274;7.794;2024-02-15T07:16:21;6.80;99.90
21722;DHT22;11023;48.274;7.794;2024-02-15T07:25:04;7.00;99.90
21722;DHT22;11023;48.274;7.794;2024-02-15T07:27:51;7.10;99.90
21722;DHT22;11023;48.274;7.794;2024-02-15T07:33:37;7.40;99.90
21722;DHT22;11023;48.274;7.794;2024-02-15T07:36:39;7.50;99.90
21722;DHT22;11023;48.274;7.794;2024-02-15T07:39:38;7.60;99.90
21722;DHT22;11023;48.274;7.794;2024-02-15T07:42:29;7.70;99.90
21722;DHT22;11023;48.274;7.794;2024-02-15T07:44:58;7.70;99.90
21722;DHT22;11023;48.274;7.794;2024-02-15T07:47:46;7.70;99.90
21722;DHT22;11023;48.274;7.794;2024-02-15T07:50:40;7.70;99.90
21722;DHT22;11023;48.274;7.794;2024-02-15T07:53:41;7.70;99.90
21722;DHT22;11023;48.274;7.794;2024-02-15T07:56:50;7.70;99.90
21722;DHT22;11023;48.274;7.794;2024-02-15T07:59:23;7.80;99.90
21722;DHT22;11023;48.274;7.794;2024-02-15T08:01:55;7.70;99.90
21722;DHT22;11023;48.274;7.794;2024-02-15T08:04:33;7.70;99.90
21722;DHT22;11023;48.274;7.794;2024-02-15T08:07:40;7.80;99.90
21722;DHT22;11023;48.274;7.794;2024-02-15T08:10:27;7.80;99.90
21722;DHT22;11023;48.274;7.794;2024-02-15T08:13:33;7.90;99.90
21722;DHT22;11023;48.274;7.794;2024-02-15T08:16:05;7.90;99.90
21722;DHT22;11023;48.274;7.794;2024-02-15T08:19:02;8.00;99.90
21722;DHT22;11023;48.274;7.794;2024-02-15T08:21:33;8.10;99.90
21722;DHT22;11023;48.274;7.794;2024-02-15T08:24:23;8.10;99.90
21722;DHT22;11023;48.274;7.794;2024-02-15T08:27:27;8.20;99.90
21722;DHT22;11023;48.274;7.794;2024-02-15T08:30:20;8.30;99.90
21722;DHT22;11023;48.274;7.794;2024-02-15T08:38:39;8.70;99.90
21722;DHT22;11023;48.274;7.794;2024-02-15T08:41:15;8.80;99.90
21722;DHT22;11023;48.274;7.794;2024-02-15T08:44:02;9.00;99.90
21722;DHT22;11023;48.274;7.794;2024-02-15T08:46:53;9.10;99.90
21722;DHT22;11023;48.274;7.794;2024-02-15T08:49:56;9.20;99.90
21722;DHT22;11023;48.274;7.794;2024-02-15T08:58:49;9.60;99.90
21722;DHT22;11023;48.274;7.794;2024-02-15T09:01:18;9.70;99.90
21722;DHT22;11023;48.274;7.794;2024-02-15T09:07:11;9.80;99.90
21722;DHT22;11023;48.274;7.794;2024-02-15T09:09:51;9.90;99.90
21722;DHT22;11023;48.274;7.794;2024-02-15T09:19:12;10.20;99.90
21722;DHT22;11023;48.274;7.794;2024-02-15T09:22:14;10.30;99.90
21722;DHT22;11023;48.274;7.794;2024-02-15T09:25:02;10.30;99.90
21722;DHT22;11023;48.274;7.794;2024-02-15T09:27:33;10.40;99.90
21722;DHT22;11023;48.274;7.794;2024-02-15T09:30:05;10.50;99.90
21722;DHT22;11023;48.274;7.794;2024-02-15T09:33:12;10.70;99.90
21722;DHT22;11023;48.274;7.794;2024-02-15T09:36:14;10.70;99.90
21722;DHT22;11023;48.274;7.794;2024-02-15T09:38:55;10.80;99.90
21722;DHT22;11023;48.274;7.794;2024-02-15T09:41:25;11.00;99.90
21722;DHT22;11023;48.274;7.794;2024-02-15T09:44:00;11.00;99.90
21722;DHT22;11023;48.274;7.794;2024-02-15T09:46:27;11.10;99.90
21722;DHT22;11023;48.274;7.794;2024-02-15T09:49:14;11.20;99.90
21722;DHT22;11023;48.274;7.794;2024-02-15T09:52:15;11.30;99.90
21722;DHT22;11023;48.274;7.794;2024-02-15T09:55:08;11.40;99.90
21722;DHT22;11023;48.274;7.794;2024-02-15T10:13:50;11.70;99.90
21722;DHT22;11023;48.274;7.794;2024-02-15T10:28:34;12.30;99.90
21722;DHT22;11023;48.274;7.794;2024-02-15T10:31:58;12.40;99.90
21722;DHT22;11023;48.274;7.794;2024-02-15T10:38:32;12.60;99.90
21722;DHT22;11023;48.274;7.794;2024-02-15T10:41:23;12.70;99.90
21722;DHT22;11023;48.274;7.794;2024-02-15T10:48:08;12.80;99.90
21722;DHT22;11023;48.274;7.794;2024-02-15T11:17:53;13.80;99.90
21722;DHT22;11023;48.274;7.794;2024-02-15T11:30:09;14.30;99.90
21722;DHT22;11023;48.274;7.794;2024-02-15T11:32:57;14.40;99.90
21722;DHT22;11023;48.274;7.794;2024-02-15T11:43:44;14.90;99.90
21722;DHT22;11023;48.274;7.794;2024-02-15T11:46:57;15.10;99.90
21722;DHT22;11023;48.274;7.794;2024-02-15T11:49:59;15.20;99.90
21722;DHT22;11023;48.274;7.794;2024-02-15T12:28:49;16.00;99.90
21722;DHT22;11023;48.274;7.794;2024-02-15T13:06:43;16.40;99.90
21722;DHT22;11023;48.274;7.794;2024-02-15T13:12:06;16.30;99.90
21722;DHT22;11023;48.274;7.794;2024-02-15T13:14:38;16.40;99.90
21722;DHT22;11023;48.274;7.794;2024-02-15T13:17:10;16.40;99.90
21722;DHT22;11023;48.274;7.794;2024-02-15T13:19:52;16.50;99.90
21722;DHT22;11023;48.274;7.794;2024-02-15T13:22:38;16.50;99.90
21722;DHT22;11023;48.274;7.794;2024-02-15T13:25:19;16.50;99.90
21722;DHT22;11023;48.274;7.794;2024-02-15T13:27:55;16.50;99.90
21722;DHT22;11023;48.274;7.794;2024-02-15T13:31:26;16.60;99.90
21722;DHT22;11023;48.274;7.794;2024-02-15T13:46:00;16.60;99.90
21722;DHT22;11023;48.274;7.794;2024-02-15T13:52:33;16.60;99.90
21722;DHT22;11023;48.274;7.794;2024-02-15T13:55:29;16.60;99.90
21722;DHT22;11023;48.274;7.794;2024-02-15T13:58:28;16.70;99.90
21722;DHT22;11023;48.274;7.794;2024-02-15T14:04:28;16.60;99.90
21722;DHT22;11023;48.274;7.794;2024-02-15T14:07:29;16.70;99.90
21722;DHT22;11023;48.274;7.794;2024-02-15T14:10:28;16.60;99.90
21722;DHT22;11023;48.274;7.794;2024-02-15T14:13:18;16.60;99.90
21722;DHT22;11023;48.274;7.794;2024-02-15T14:16:24;16.60;99.90
21722;DHT22;11023;48.274;7.794;2024-02-15T14:21:52;16.70;99.90
21722;DHT22;11023;48.274;7.794;2024-02-15T14:24:44;16.70;99.90
21722;DHT22;11023;48.274;7.794;2024-02-15T14:27:43;16.70;99.90
21722;DHT22;11023;48.274;7.794;2024-02-15T14:30:28;16.60;99.90
21722;DHT22;11023;48.274;7.794;2024-02-15T14:33:13;16.60;99.90
21722;DHT22;11023;48.274;7.794;2024-02-15T14:35:56;16.50;99.90
21722;DHT22;11023;48.274;7.794;2024-02-15T14:38:44;16.50;99.90
21722;DHT22;11023;48.274;7.794;2024-02-15T14:41:31;16.40;99.90
21722;DHT22;11023;48.274;7.794;2024-02-15T14:44:06;16.40;99.90
21722;DHT22;11023;48.274;7.794;2024-02-15T14:53:11;16.30;99.90
21722;DHT22;11023;48.274;7.794;2024-02-15T14:55:45;16.30;99.90
21722;DHT22;11023;48.274;7.794;2024-02-15T14:58:27;16.30;99.90
21722;DHT22;11023;48.274;7.794;2024-02-15T15:00:59;16.30;99.90
21722;DHT22;11023;48.274;7.794;2024-02-15T15:03:38;16.30;99.90
21722;DHT22;11023;48.274;7.794;2024-02-15T15:06:33;16.20;99.90
21722;DHT22;11023;48.274;7.794;2024-02-15T15:12:28;16.20;99.90
21722;DHT22;11023;48.274;7.794;2024-02-15T15:15:09;16.20;99.90
21722;DHT22;11023;48.274;7.794;2024-02-15T15:17:47;16.00;99.90
21722;DHT22;11023;48.274;7.794;2024-02-15T15:20:27;16.10;99.90
21722;DHT22;11023;48.274;7.794;2024-02-15T15:23:03;16.10;99.90
21722;DHT22;11023;48.274;7.794;2024-02-15T15:25:34;16.10;99.90
21722;DHT22;11023;48.274;7.794;2024-02-15T15:28:00;16.00;99.90
21722;DHT22;11023;48.274;7.794;2024-02-15T15:31:05;16.00;99.90
21722;DHT22;11023;48.274;7.794;2024-02-15T15:33:59;16.00;99.90
21722;DHT22;11023;48.274;7.794;2024-02-15T15:36:29;16.00;99.90
21722;DHT22;11023;48.274;7.794;2024-02-15T15:42:14;16.00;99.90
21722;DHT22;11023;48.274;7.794;2024-02-15T15:47:52;15.90;99.90
21722;DHT22;11023;48.274;7.794;2024-02-15T15:51:07;15.90;99.90
21722;DHT22;11023;48.274;7.794;2024-02-15T15:54:20;15.90;99.90
21722;DHT22;11023;48.274;7.794;2024-02-15T15:56:53;15.80;99.90
21722;DHT22;11023;48.274;7.794;2024-02-15T15:59:35;15.70;99.90
21722;DHT22;11023;48.274;7.794;2024-02-15T16:02:12;15.70;99.90
21722;DHT22;11023;48.274;7.794;2024-02-15T16:04:49;15.70;99.90
21722;DHT22;11023;48.274;7.794;2024-02-15T16:07:30;15.70;99.90
21722;DHT22;11023;48.274;7.794;2024-02-15T16:13:46;15.60;99.90
21722;DHT22;11023;48.274;7.794;2024-02-15T16:20:16;15.50;99.90
21722;DHT22;11023;48.274;7.794;2024-02-15T16:22:51;15.50;99.90
21722;DHT22;11023;48.274;7.794;2024-02-15T16:29:09;15.40;99.90
21722;DHT22;11023;48.274;7.794;2024-02-15T16:45:28;15.00;99.90
21722;DHT22;11023;48.274;7.794;2024-02-15T16:48:03;14.90;99.90
21722;DHT22;11023;48.274;7.794;2024-02-15T16:53:48;14.70;99.90
21722;DHT22;11023;48.274;7.794;2024-02-15T16:57:16;14.60;99.90
21722;DHT22;11023;48.274;7.794;2024-02-15T17:00:06;14.60;99.90
21722;DHT22;11023;48.274;7.794;2024-02-15T17:02:52;14.60;99.90
21722;DHT22;11023;48.274;7.794;2024-02-15T17:05:18;14.60;99.90
21722;DHT22;11023;48.274;7.794;2024-02-15T17:08:10;14.50;99.90
21722;DHT22;11023;48.274;7.794;2024-02-15T17:18:12;14.40;99.90
21722;DHT22;11023;48.274;7.794;2024-02-15T17:20:47;14.30;99.90
21722;DHT22;11023;48.274;7.794;2024-02-15T17:23:27;14.20;99.90
21722;DHT22;11023;48.274;7.794;2024-02-15T17:26:14;14.00;99.90
21722;DHT22;11023;48.274;7.794;2024-02-15T17:34:23;13.70;99.90
21722;DHT22;11023;48.274;7.794;2024-02-15T17:43:49;13.30;99.90
21722;DHT22;11023;48.274;7.794;2024-02-15T17:46:40;13.30;99.90
21722;DHT22;11023;48.274;7.794;2024-02-15T17:52:09;13.10;99.90
21722;DHT22;11023;48.274;7.794;2024-02-15T17:54:56;13.00;99.90
21722;DHT22;11023;48.274;7.794;2024-02-15T17:57:48;12.90;99.90
21722;DHT22;11023;48.274;7.794;2024-02-15T18:00:40;12.80;99.90
21722;DHT22;11023;48.274;7.794;2024-02-15T18:03:32;12.80;99.90
21722;DHT22;11023;48.274;7.794;2024-02-15T18:06:41;12.70;99.90
21722;DHT22;11023;48.274;7.794;2024-02-15T18:12:11;12.50;99.90
21722;DHT22;11023;48.274;7.794;2024-02-15T18:14:59;12.50;99.90
21722;DHT22;11023;48.274;7.794;2024-02-15T18:24:29;12.40;99.90
21722;DHT22;11023;48.274;7.794;2024-02-15T18:27:03;12.30;99.90
21722;DHT22;11023;48.274;7.794;2024-02-15T18:29:38;12.30;99.90
21722;DHT22;11023;48.274;7.794;2024-02-15T18:32:17;12.20;99.90
21722;DHT22;11023;48.274;7.794;2024-02-15T18:34:52;12.30;99.90
21722;DHT22;11023;48.274;7.794;2024-02-15T18:37:33;12.20;99.90
21722;DHT22;11023;48.274;7.794;2024-02-15T18:40:28;12.30;99.90
21722;DHT22;11023;48.274;7.794;2024-02-15T18:42:59;12.20;99.90
21722;DHT22;11023;48.274;7.794;2024-02-15T18:45:40;12.20;99.90
21722;DHT22;11023;48.274;7.794;2024-02-15T18:48:12;12.20;99.90
21722;DHT22;11023;48.274;7.794;2024-02-15T18:51:01;12.10;99.90
21722;DHT22;11023;48.274;7.794;2024-02-15T18:53:34;12.10;99.90
21722;DHT22;11023;48.274;7.794;2024-02-15T18:56:13;12.00;99.90
21722;DHT22;11023;48.274;7.794;2024-02-15T18:58:44;12.00;99.90
21722;DHT22;11023;48.274;7.794;2024-02-15T19:01:19;11.90;99.90
21722;DHT22;11023;48.274;7.794;2024-02-15T19:04:03;11.90;99.90
21722;DHT22;11023;48.274;7.794;2024-02-15T19:06:42;11.90;99.90
21722;DHT22;11023;48.274;7.794;2024-02-15T19:09:14;11.90;99.90
21722;DHT22;11023;48.274;7.794;2024-02-15T19:11:54;11.90;99.90
21722;DHT22;11023;48.274;7.794;2024-02-15T19:14:22;11.90;99.90
21722;DHT22;11023;48.274;7.794;2024-02-15T19:16:57;11.90;99.90
21722;DHT22;11023;48.274;7.794;2024-02-15T19:19:31;12.00;99.90
21722;DHT22;11023;48.274;7.794;2024-02-15T19:22:19;12.10;99.90
21722;DHT22;11023;48.274;7.794;2024-02-15T19:24:44;12.00;99.90
21722;DHT22;11023;48.274;7.794;2024-02-15T19:27:13;12.00;99.90
21722;DHT22;11023;48.274;7.794;2024-02-15T19:29:41;12.00;99.90
21722;DHT22;11023;48.274;7.794;2024-02-15T19:32:07;12.00;99.90
21722;DHT22;11023;48.274;7.794;2024-02-15T19:34:42;11.90;99.90
21722;DHT22;11023;48.274;7.794;2024-02-15T19:37:14;11.90;99.90
21722;DHT22;11023;48.274;7.794;2024-02-15T19:39:48;11.80;99.90
21722;DHT22;11023;48.274;7.794;2024-02-15T19:42:18;11.70;99.90
21722;DHT22;11023;48.274;7.794;2024-02-15T19:44:46;11.60;99.90
21722;DHT22;11023;48.274;7.794;2024-02-15T19:47:23;11.50;99.90
21722;DHT22;11023;48.274;7.794;2024-02-15T19:49:50;11.40;99.90
21722;DHT22;11023;48.274;7.794;2024-02-15T19:52:19;11.40;99.90
21722;DHT22;11023;48.274;7.794;2024-02-15T19:54:47;11.20;99.90
21722;DHT22;11023;48.274;7.794;2024-02-15T19:57:17;11.20;99.90
21722;DHT22;11023;48.274;7.794;2024-02-15T19:59:49;11.10;99.90
21722;DHT22;11023;48.274;7.794;2024-02-15T20:02:23;11.10;99.90
21722;DHT22;11023;48.274;7.794;2024-02-15T20:04:57;11.00;99.90
21722;DHT22;11023;48.274;7.794;2024-02-15T20:07:58;11.00;99.90
21722;DHT22;11023;48.274;7.794;2024-02-15T20:10:34;11.00;99.90
21722;DHT22;11023;48.274;7.794;2024-02-15T20:13:03;10.90;99.90
21722;DHT22;11023;48.274;7.794;2024-02-15T20:15:32;10.90;99.90
21722;DHT22;11023;48.274;7.794;2024-02-15T20:18:06;10.80;99.90
21722;DHT22;11023;48.274;7.794;2024-02-15T20:20:45;10.90;99.90
21722;DHT22;11023;48.274;7.794;2024-02-15T20:23:11;10.80;99.90
21722;DHT22;11023;48.274;7.794;2024-02-15T20:25:44;10.80;99.90
21722;DHT22;11023;48.274;7.794;2024-02-15T20:28:13;10.80;99.90
21722;DHT22;11023;48.274;7.794;2024-02-15T20:30:39;10.80;99.90
21722;DHT22;11023;48.274;7.794;2024-02-15T20:33:11;10.80;99.90
21722;DHT22;11023;48.274;7.794;2024-02-15T20:35:51;10.80;99.90
21722;DHT22;11023;48.274;7.794;2024-02-15T20:38:21;10.80;99.90
21722;DHT22;11023;48.274;7.794;2024-02-15T20:40:58;10.80;99.90
21722;DHT22;11023;48.274;7.794;2024-02-15T20:43:41;10.80;99.90
21722;DHT22;11023;48.274;7.794;2024-02-15T20:46:08;10.90;99.90
21722;DHT22;11023;48.274;7.794;2024-02-15T20:48:38;10.90;99.90
21722;DHT22;11023;48.274;7.794;2024-02-15T20:51:10;10.90;99.90
21722;DHT22;11023;48.274;7.794;2024-02-15T20:53:46;10.90;99.90
21722;DHT22;11023;48.274;7.794;2024-02-15T20:56:36;10.90;99.90
21722;DHT22;11023;48.274;7.794;2024-02-15T21:02:10;11.00;99.90
21722;DHT22;11023;48.274;7.794;2024-02-15T21:04:44;11.00;99.90
21722;DHT22;11023;48.274;7.794;2024-02-15T21:10:52;11.00;99.90
21722;DHT22;11023;48.274;7.794;2024-02-15T21:13:20;11.00;99.90
21722;DHT22;11023;48.274;7.794;2024-02-15T21:15:56;11.00;99.90
21722;DHT22;11023;48.274;7.794;2024-02-15T21:18:29;10.90;99.90
21722;DHT22;11023;48.274;7.794;2024-02-15T21:20:59;10.90;99.90
21722;DHT22;11023;48.274;7.794;2024-02-15T21:23:31;10.90;99.90
21722;DHT22;11023;48.274;7.794;2024-02-15T21:26:28;10.90;99.90
21722;DHT22;11023;48.274;7.794;2024-02-15T21:29:01;11.00;99.90
21722;DHT22;11023;48.274;7.794;2024-02-15T21:31:36;11.00;99.90
21722;DHT22;11023;48.274;7.794;2024-02-15T21:34:09;10.90;99.90
21722;DHT22;11023;48.274;7.794;2024-02-15T21:36:40;10.90;99.90
21722;DHT22;11023;48.274;7.794;2024-02-15T21:39:20;10.90;99.90
21722;DHT22;11023;48.274;7.794;2024-02-15T21:41:51;10.90;99.90
21722;DHT22;11023;48.274;7.794;2024-02-15T21:44:17;10.90;99.90
21722;DHT22;11023;48.274;7.794;2024-02-15T21:46:42;10.80;99.90